Time;durP1;ratioP1;P1;durP2;ratioP2;P2;SDS_P1;SDS_P2;PMS_P1;PMS_P2;Temp;Humidity;BMP_temperature;BMP_pressure;BME280_temperature;BME280_humidity;BME280_pressure;Samples;Min_cycle;Max_cycle;Signal;HPM_P1;HPM_P2
2022/03/03 00:00:44;;;;;;;44.50;23.60;;;0.60;99.90;;;;;;4915361;29;20054;-87
2022/03/03 00:03:10;;;;;;;53.57;23.77;;;0.60;99.90;;;;;;4915775;29;20039;-87
2022/03/03 00:05:36;;;;;;;48.50;23.50;;;0.60;99.90;;;;;;4932653;29;20117;-90
2022/03/03 00:08:02;;;;;;;47.13;24.03;;;0.50;99.90;;;;;;4937234;29;20051;-88
2022/03/03 00:10:28;;;;;;;46.37;22.63;;;0.50;99.90;;;;;;4937166;29;20043;-88
2022/03/03 00:12:53;;;;;;;43.37;22.70;;;1.20;99.90;;;;;;4937292;29;20051;-89
2022/03/03 00:15:19;;;;;;;51.27;25.07;;;1.40;99.90;;;;;;4936324;29;20055;-88
2022/03/03 00:17:44;;;;;;;47.73;24.27;;;0.40;99.90;;;;;;4937404;29;20055;-95
2022/03/03 00:20:10;;;;;;;46.60;22.37;;;0.40;99.90;;;;;;4937024;29;20051;-89
2022/03/03 00:22:36;;;;;;;48.40;23.93;;;0.40;99.90;;;;;;4939547;29;20055;-89
2022/03/03 00:25:02;;;;;;;48.27;24.83;;;0.30;99.90;;;;;;4941123;29;20403;-88
2022/03/03 00:27:27;;;;;;;51.47;23.80;;;0.20;99.90;;;;;;4940542;29;20864;-88
2022/03/03 00:29:53;;;;;;;47.03;23.30;;;0.20;99.90;;;;;;4941649;29;20039;-88
2022/03/03 00:32:19;;;;;;;50.93;23.33;;;0.20;99.90;;;;;;4940603;29;20043;-88
2022/03/03 00:34:44;;;;;;;46.93;22.60;;;0.10;99.90;;;;;;4939968;29;20050;-88
2022/03/03 00:37:10;;;;;;;47.23;23.30;;;0.00;99.90;;;;;;4940160;29;20054;-87
2022/03/03 00:39:35;;;;;;;47.60;24.70;;;0.00;99.90;;;;;;4940812;29;20055;-88
2022/03/03 00:42:01;;;;;;;47.30;23.20;;;-0.10;99.90;;;;;;4940632;29;20055;-88
2022/03/03 00:44:27;;;;;;;48.33;22.63;;;-0.10;99.90;;;;;;4941202;29;20047;-88
2022/03/03 00:46:54;;;;;;;52.27;22.57;;;-0.10;99.90;;;;;;4940778;29;20043;-89
2022/03/03 00:49:19;;;;;;;48.50;23.47;;;-0.20;99.90;;;;;;4939987;29;20503;-88
2022/03/03 00:51:45;;;;;;;47.70;22.10;;;-0.20;99.90;;;;;;4941519;29;20297;-88
2022/03/03 00:54:11;;;;;;;45.87;22.97;;;-0.20;99.90;;;;;;4940755;29;20046;-89
2022/03/03 00:56:36;;;;;;;49.30;24.03;;;-0.20;99.90;;;;;;4940703;29;20051;-88
2022/03/03 00:59:03;;;;;;;43.93;21.13;;;-0.30;99.90;;;;;;4941045;29;20484;-88
2022/03/03 01:01:28;;;;;;;45.83;22.40;;;-0.30;99.90;;;;;;4933191;29;20039;-88
2022/03/03 01:03:54;;;;;;;46.00;22.43;;;-0.30;99.90;;;;;;4921435;29;20044;-88
2022/03/03 01:06:19;;;;;;;46.47;22.87;;;-0.40;99.90;;;;;;4920849;29;20047;-89
2022/03/03 01:08:45;;;;;;;48.43;23.30;;;-0.40;99.90;;;;;;4921401;29;20058;-88
2022/03/03 01:11:10;;;;;;;40.70;22.20;;;0.00;99.90;;;;;;4920007;29;20043;-88
2022/03/03 01:13:36;;;;;;;44.83;22.07;;;-0.50;99.90;;;;;;4921691;29;20047;-88
2022/03/03 01:16:02;;;;;;;49.57;23.73;;;0.60;99.90;;;;;;4921319;29;20511;-88
2022/03/03 01:18:27;;;;;;;42.03;21.70;;;-0.60;99.90;;;;;;4919894;29;20098;-88
2022/03/03 01:20:54;;;;;;;45.70;23.20;;;0.40;99.90;;;;;;4921031;29;20043;-88
2022/03/03 01:23:20;;;;;;;45.73;23.47;;;-0.70;99.90;;;;;;4921403;29;20048;-88
2022/03/03 01:25:46;;;;;;;45.63;22.83;;;-0.70;99.90;;;;;;4920671;29;20051;-89
2022/03/03 01:28:11;;;;;;;44.53;22.67;;;-0.80;99.90;;;;;;4920665;29;20525;-88
2022/03/03 01:30:37;;;;;;;49.43;21.90;;;-0.80;99.90;;;;;;4920727;29;20044;-88
2022/03/03 01:33:03;;;;;;;48.37;24.37;;;-0.80;99.90;;;;;;4921163;29;20081;-88
2022/03/03 01:35:28;;;;;;;47.60;22.20;;;-0.90;99.90;;;;;;4920725;29;20039;-88
2022/03/03 01:37:54;;;;;;;53.63;22.80;;;-1.00;99.90;;;;;;4919947;29;20097;-88
2022/03/03 01:40:22;;;;;;;45.33;22.67;;;-0.10;99.90;;;;;;4937452;29;20055;-88
2022/03/03 01:42:50;;;;;;;48.63;22.60;;;-1.00;99.90;;;;;;4920135;29;20059;-88
2022/03/03 01:45:15;;;;;;;44.70;22.53;;;-1.10;99.90;;;;;;4919401;29;20050;-88
2022/03/03 01:47:41;;;;;;;48.37;23.33;;;-1.10;99.90;;;;;;4920574;29;20471;-89
2022/03/03 01:50:07;;;;;;;48.37;22.67;;;-1.20;99.90;;;;;;4920229;29;20493;-88
2022/03/03 01:52:33;;;;;;;47.13;22.47;;;-1.30;99.90;;;;;;4920132;29;20138;-88
2022/03/03 01:54:59;;;;;;;45.20;23.23;;;-1.30;99.90;;;;;;4920727;29;20127;-88
2022/03/03 01:57:25;;;;;;;44.80;22.97;;;-1.40;99.90;;;;;;4920527;29;20055;-88
2022/03/03 01:59:50;;;;;;;47.30;22.03;;;-1.40;99.90;;;;;;4919875;29;20055;-88
2022/03/03 02:02:16;;;;;;;45.63;21.53;;;-1.40;99.90;;;;;;4919912;29;20048;-89
2022/03/03 02:04:42;;;;;;;46.20;22.40;;;-1.40;99.90;;;;;;4920353;29;20039;-88
2022/03/03 02:07:09;;;;;;;46.87;22.60;;;-1.40;99.90;;;;;;4918803;29;20035;-87
2022/03/03 02:09:35;;;;;;;44.77;22.33;;;-1.40;99.90;;;;;;4920122;29;20054;-88
2022/03/03 02:12:01;;;;;;;48.30;22.33;;;-1.50;99.90;;;;;;4920190;29;20043;-88
2022/03/03 02:14:26;;;;;;;48.93;22.27;;;-1.50;99.90;;;;;;4919912;29;20058;-88
2022/03/03 02:16:52;;;;;;;47.57;21.93;;;-1.40;99.90;;;;;;4921834;29;20489;-88
2022/03/03 02:19:19;;;;;;;47.10;23.27;;;-1.50;99.90;;;;;;4926626;29;20140;-88
2022/03/03 02:21:49;;;;;;;53.37;23.03;;;-1.50;99.90;;;;;;4919989;29;20044;-88
2022/03/03 02:24:15;;;;;;;46.73;22.77;;;-1.50;99.90;;;;;;4919412;29;20071;-89
2022/03/03 02:26:42;;;;;;;46.47;21.53;;;-1.20;99.90;;;;;;4919985;29;20044;-87
2022/03/03 02:29:08;;;;;;;47.87;22.90;;;-1.60;99.90;;;;;;4919493;29;20055;-88
2022/03/03 02:31:33;;;;;;;42.63;21.47;;;-1.60;99.90;;;;;;4919614;29;20040;-89
2022/03/03 02:34:00;;;;;;;45.40;22.33;;;-1.60;99.90;;;;;;4919131;29;20051;-88
2022/03/03 02:36:27;;;;;;;47.77;22.40;;;-1.60;99.90;;;;;;4920040;29;20047;-88
2022/03/03 02:38:55;;;;;;;43.73;21.13;;;-1.70;99.90;;;;;;4919744;29;20508;-88
2022/03/03 02:41:22;;;;;;;42.43;21.43;;;-1.70;99.90;;;;;;4918110;29;20050;-88
2022/03/03 02:43:48;;;;;;;47.93;22.60;;;-1.70;99.90;;;;;;4919852;29;20048;-88
2022/03/03 02:46:14;;;;;;;47.90;22.80;;;-1.80;99.90;;;;;;4919775;29;20050;-88
2022/03/03 02:48:40;;;;;;;46.30;22.93;;;-1.80;99.90;;;;;;4919626;29;20071;-88
2022/03/03 02:51:06;;;;;;;46.20;21.90;;;-1.70;99.90;;;;;;4920255;29;20086;-88
2022/03/03 02:53:32;;;;;;;45.37;21.97;;;-1.80;99.90;;;;;;4919836;29;20551;-88
2022/03/03 02:55:58;;;;;;;43.77;22.27;;;-1.80;99.90;;;;;;4918915;29;20131;-88
2022/03/03 02:58:24;;;;;;;46.13;22.20;;;-1.80;99.90;;;;;;4918614;29;20500;-88
2022/03/03 03:00:50;;;;;;;42.10;20.83;;;-1.90;99.90;;;;;;4918812;29;20135;-88
2022/03/03 03:03:17;;;;;;;47.63;22.73;;;-1.90;99.90;;;;;;4916833;29;20154;-88
2022/03/03 03:05:43;;;;;;;48.80;22.50;;;-1.90;99.90;;;;;;4919975;29;20039;-88
2022/03/03 03:08:09;;;;;;;43.50;21.23;;;-2.00;99.90;;;;;;4919470;29;20122;-88
2022/03/03 03:10:35;;;;;;;46.77;22.50;;;-2.00;99.90;;;;;;4918982;29;20054;-88
2022/03/03 03:13:01;;;;;;;45.40;22.13;;;-2.00;99.90;;;;;;4919709;29;20142;-88
2022/03/03 03:15:27;;;;;;;47.03;23.27;;;-2.00;99.90;;;;;;4919720;29;20126;-88
2022/03/03 03:17:53;;;;;;;45.23;22.43;;;-2.00;99.90;;;;;;4918922;29;20062;-88
2022/03/03 03:20:19;;;;;;;48.50;22.53;;;-1.50;99.90;;;;;;4919323;29;20142;-88
2022/03/03 03:22:45;;;;;;;43.63;21.17;;;-2.00;99.90;;;;;;4935851;29;20560;-88
2022/03/03 03:25:12;;;;;;;46.20;22.63;;;-2.00;99.90;;;;;;4918233;29;20051;-89
2022/03/03 03:27:41;;;;;;;42.50;21.93;;;-2.00;99.90;;;;;;4919123;29;20563;-88
2022/03/03 03:30:10;;;;;;;42.50;22.07;;;-2.10;99.90;;;;;;4917272;29;20051;-88
2022/03/03 03:32:36;;;;;;;41.87;21.70;;;-2.10;99.90;;;;;;4918689;29;20039;-88
2022/03/03 03:35:02;;;;;;;43.00;21.70;;;-1.00;99.90;;;;;;4918554;29;20048;-88
2022/03/03 03:37:28;;;;;;;43.77;21.97;;;-2.10;99.90;;;;;;4917637;29;20079;-88
2022/03/03 03:39:53;;;;;;;40.27;21.23;;;-2.10;99.90;;;;;;4918428;29;20075;-88
2022/03/03 03:42:19;;;;;;;42.30;21.80;;;-2.10;99.90;;;;;;4918786;29;20059;-88
2022/03/03 03:44:44;;;;;;;46.53;22.33;;;-2.00;99.90;;;;;;4918712;29;20040;-88
2022/03/03 03:47:10;;;;;;;43.17;21.57;;;-1.80;99.90;;;;;;4918923;29;20527;-88
2022/03/03 03:49:36;;;;;;;43.43;22.07;;;-1.90;99.90;;;;;;4918836;29;20059;-87
2022/03/03 03:52:02;;;;;;;44.40;21.90;;;-1.90;99.90;;;;;;4918198;29;20047;-88
2022/03/03 03:54:28;;;;;;;43.97;22.20;;;-1.90;99.90;;;;;;4918694;29;20083;-88
2022/03/03 03:56:54;;;;;;;43.80;21.40;;;-1.80;99.90;;;;;;4919643;29;20095;-88
2022/03/03 03:59:19;;;;;;;44.97;22.30;;;-1.80;99.90;;;;;;4939136;29;20517;-88
2022/03/03 04:01:45;;;;;;;42.67;20.60;;;-1.70;99.90;;;;;;4922559;29;20043;-88
2022/03/03 04:04:10;;;;;;;42.77;22.37;;;-1.70;99.90;;;;;;4921915;29;20397;-88
2022/03/03 04:06:37;;;;;;;41.70;20.30;;;-1.50;99.90;;;;;;4921438;29;20052;-88
2022/03/03 04:09:03;;;;;;;41.37;21.20;;;-1.60;99.90;;;;;;4921947;29;20044;-88
2022/03/03 04:11:29;;;;;;;43.00;20.30;;;-1.60;99.90;;;;;;4922151;29;20056;-87
2022/03/03 04:13:56;;;;;;;40.57;20.40;;;-1.60;99.90;;;;;;4921364;29;20134;-88
2022/03/03 04:16:25;;;;;;;41.23;20.67;;;-1.50;99.90;;;;;;4921790;29;20079;-88
2022/03/03 04:18:51;;;;;;;46.00;22.20;;;-1.50;99.90;;;;;;4925344;29;20039;-87
2022/03/03 04:21:17;;;;;;;35.13;18.97;;;-1.50;99.90;;;;;;4921014;29;20044;-88
2022/03/03 04:23:43;;;;;;;38.80;20.00;;;-1.50;99.90;;;;;;4922059;29;20131;-88
2022/03/03 04:26:09;;;;;;;41.03;20.03;;;-1.50;99.90;;;;;;4926896;29;20048;-88
2022/03/03 04:28:35;;;;;;;36.30;19.13;;;-1.50;99.90;;;;;;4922674;29;20488;-87
2022/03/03 04:31:00;;;;;;;43.83;20.90;;;-1.50;99.90;;;;;;4922216;29;20055;-88
2022/03/03 04:33:26;;;;;;;34.97;18.03;;;-1.50;99.90;;;;;;4920949;29;20051;-88
2022/03/03 04:35:52;;;;;;;34.93;18.60;;;-1.60;99.90;;;;;;4922100;29;20377;-88
2022/03/03 04:38:17;;;;;;;37.30;20.13;;;-1.40;99.90;;;;;;4921427;29;20048;-87
2022/03/03 04:40:43;;;;;;;40.27;19.40;;;-1.60;99.90;;;;;;4920812;29;20051;-87
2022/03/03 04:43:08;;;;;;;35.17;17.93;;;-1.60;99.90;;;;;;4921264;29;20054;-87
2022/03/03 04:45:34;;;;;;;35.87;19.07;;;-1.40;99.90;;;;;;4921631;29;20075;-88
2022/03/03 04:48:00;;;;;;;38.03;18.60;;;-1.60;99.90;;;;;;4920695;29;20056;-87
2022/03/03 04:50:26;;;;;;;31.90;18.20;;;-1.70;99.90;;;;;;4921103;29;20419;-88
2022/03/03 04:52:52;;;;;;;36.67;19.20;;;-1.70;99.90;;;;;;4921814;29;20065;-88
2022/03/03 04:55:18;;;;;;;34.77;18.60;;;-1.80;99.90;;;;;;4920197;29;20484;-87
2022/03/03 04:57:43;;;;;;;36.07;18.80;;;-1.80;99.90;;;;;;4920815;29;20086;-88
2022/03/03 05:00:09;;;;;;;36.27;18.87;;;-1.50;99.90;;;;;;4921033;29;20051;-86
2022/03/03 05:02:35;;;;;;;34.07;18.47;;;-1.90;99.90;;;;;;4920101;29;20048;-87
2022/03/03 05:05:00;;;;;;;35.57;18.30;;;-1.90;99.90;;;;;;4940162;29;20103;-87
2022/03/03 05:07:26;;;;;;;34.30;18.00;;;-2.00;99.90;;;;;;4940405;28;20047;-87
2022/03/03 05:09:52;;;;;;;35.00;18.17;;;-1.90;99.90;;;;;;4939070;29;20045;-87
2022/03/03 05:12:17;;;;;;;35.27;19.10;;;-1.70;99.90;;;;;;4940008;29;20054;-87
2022/03/03 05:14:43;;;;;;;35.93;19.40;;;-1.90;99.90;;;;;;4939771;29;20043;-87
2022/03/03 05:17:08;;;;;;;34.23;17.80;;;-1.80;99.90;;;;;;4938901;29;20054;-87
2022/03/03 05:19:34;;;;;;;33.37;18.17;;;-1.60;99.90;;;;;;4940229;29;20051;-87
2022/03/03 05:22:00;;;;;;;36.23;18.00;;;-1.80;99.90;;;;;;4940594;29;20039;-87
2022/03/03 05:24:25;;;;;;;37.67;17.33;;;-1.80;99.90;;;;;;4938407;29;20047;-87
2022/03/03 05:26:51;;;;;;;34.27;18.63;;;-1.90;99.90;;;;;;4939751;29;20058;-87
2022/03/03 05:29:17;;;;;;;35.80;18.57;;;-1.90;99.90;;;;;;4939914;29;20047;-87
2022/03/03 05:31:42;;;;;;;33.63;17.70;;;-1.90;99.90;;;;;;4939096;29;20108;-87
2022/03/03 05:34:08;;;;;;;36.43;17.93;;;-1.90;99.90;;;;;;4956409;29;20047;-87
2022/03/03 05:36:40;;;;;;;34.63;18.47;;;-1.90;99.90;;;;;;4939965;29;20043;-87
2022/03/03 05:39:06;;;;;;;34.10;18.27;;;-2.00;99.90;;;;;;4939442;29;20051;-87
2022/03/03 05:41:32;;;;;;;33.20;17.87;;;-2.00;99.90;;;;;;4939935;29;20109;-87
2022/03/03 05:43:58;;;;;;;37.23;18.27;;;-2.00;99.90;;;;;;4938523;29;20550;-87
2022/03/03 05:46:24;;;;;;;34.63;18.13;;;-2.10;99.90;;;;;;4939364;29;20073;-87
2022/03/03 05:48:50;;;;;;;34.47;17.40;;;-2.10;99.90;;;;;;4939858;29;20563;-87
2022/03/03 05:51:17;;;;;;;35.50;18.03;;;-2.10;99.90;;;;;;4938397;29;20403;-87
2022/03/03 05:53:43;;;;;;;33.93;17.40;;;-2.20;99.90;;;;;;4928722;29;20047;-87
2022/03/03 05:56:10;;;;;;;34.87;18.87;;;-2.10;99.90;;;;;;4919967;29;20465;-87
2022/03/03 05:58:40;;;;;;;36.67;18.73;;;-2.20;99.90;;;;;;4919713;29;20070;-87
2022/03/03 06:01:08;;;;;;;35.70;17.70;;;-2.20;99.90;;;;;;4920570;29;20459;-87
2022/03/03 06:03:34;;;;;;;34.90;17.40;;;-2.20;99.90;;;;;;4920555;29;20043;-87
2022/03/03 06:06:15;;;;;;;36.00;19.30;;;-2.20;99.90;;;;;;4919623;29;20047;-87
2022/03/03 06:08:46;;;;;;;35.47;18.03;;;-2.20;99.90;;;;;;4923286;29;20484;-87
2022/03/03 06:11:16;;;;;;;34.87;17.67;;;-2.20;99.90;;;;;;4920144;29;20043;-87
2022/03/03 06:13:47;;;;;;;36.50;18.80;;;-2.20;99.90;;;;;;4919480;29;20447;-87
2022/03/03 06:16:17;;;;;;;35.83;18.47;;;-2.20;99.90;;;;;;4921756;29;20392;-87
2022/03/03 06:18:48;;;;;;;36.60;18.60;;;-2.20;99.90;;;;;;4922199;29;20127;-87
2022/03/03 06:21:15;;;;;;;34.57;17.80;;;-2.20;99.90;;;;;;4919496;29;20047;-88
2022/03/03 06:23:41;;;;;;;38.50;18.70;;;-2.30;99.90;;;;;;4919831;29;20044;-87
2022/03/03 06:26:09;;;;;;;33.10;18.73;;;-2.30;99.90;;;;;;4917241;29;20203;-87
2022/03/03 06:28:35;;;;;;;35.43;17.63;;;-2.30;99.90;;;;;;4918656;29;20181;-87
2022/03/03 06:31:01;;;;;;;35.97;18.87;;;-2.30;99.90;;;;;;4920013;29;20096;-87
2022/03/03 06:33:27;;;;;;;35.17;18.63;;;-2.30;99.90;;;;;;4918372;29;20051;-87
2022/03/03 06:35:53;;;;;;;33.73;18.47;;;-2.30;99.90;;;;;;4924093;29;20500;-87
2022/03/03 06:38:18;;;;;;;32.70;17.77;;;-2.30;99.90;;;;;;4919502;29;20114;-87
2022/03/03 06:40:44;;;;;;;31.50;17.03;;;-2.10;99.90;;;;;;4918779;29;20054;-87
2022/03/03 06:43:10;;;;;;;35.10;17.80;;;-2.20;99.90;;;;;;4919232;29;20043;-87
2022/03/03 06:45:36;;;;;;;34.63;17.53;;;-2.10;99.90;;;;;;4919661;29;20522;-87
2022/03/03 06:48:04;;;;;;;34.53;18.47;;;-2.10;99.90;;;;;;4935716;29;20058;-87
2022/03/03 06:50:35;;;;;;;35.50;18.47;;;-2.00;99.90;;;;;;4919253;29;20099;-87
2022/03/03 06:53:03;;;;;;;35.20;17.60;;;-2.00;99.90;;;;;;4919611;29;20043;-88
2022/03/03 06:55:30;;;;;;;34.47;18.07;;;-2.00;99.90;;;;;;4920881;29;20039;-94
2022/03/03 06:57:57;;;;;;;36.30;17.80;;;-1.90;99.90;;;;;;4924238;29;20091;-92
2022/03/03 07:00:25;;;;;;;31.60;17.20;;;-1.90;99.90;;;;;;4925258;29;20056;-95
2022/03/03 07:02:52;;;;;;;33.47;17.10;;;-1.80;99.90;;;;;;4924393;29;20055;-92
2022/03/03 07:05:19;;;;;;;34.63;17.67;;;-1.80;99.90;;;;;;4921748;29;20048;-92
2022/03/03 07:07:46;;;;;;;33.40;17.97;;;-2.60;99.90;;;;;;4920998;29;20483;-93
2022/03/03 07:10:14;;;;;;;33.60;17.97;;;-1.00;99.90;;;;;;4919902;29;20043;-92
2022/03/03 07:12:41;;;;;;;31.97;17.27;;;-1.00;99.90;;;;;;4920907;29;20047;-94
2022/03/03 07:15:08;;;;;;;33.83;17.00;;;-1.50;99.90;;;;;;4920076;29;20051;-92
2022/03/03 07:17:48;;;;;;;34.63;18.33;;;-1.40;99.90;;;;;;4922349;29;20183;-91
2022/03/03 07:20:17;;;;;;;31.17;17.63;;;-1.40;99.90;;;;;;4920663;29;20051;-92
2022/03/03 07:23:03;;;;;;;33.10;17.67;;;-1.10;99.90;;;;;;4920648;29;20055;-92
2022/03/03 07:25:38;;;;;;;35.00;17.50;;;-1.20;99.90;;;;;;4919212;29;20082;-91
2022/03/03 07:28:08;;;;;;;34.93;17.10;;;-0.30;99.90;;;;;;4919302;29;20047;-92
2022/03/03 07:30:41;;;;;;;33.07;18.10;;;0.20;99.90;;;;;;4934288;29;20054;-91
2022/03/03 07:33:12;;;;;;;31.40;17.17;;;-1.00;99.90;;;;;;4921577;29;20514;-91
2022/03/03 07:35:40;;;;;;;34.07;18.37;;;-0.90;99.90;;;;;;4919443;29;20412;-92
2022/03/03 07:38:14;;;;;;;33.53;18.10;;;-0.50;99.90;;;;;;4918262;29;20512;-91
2022/03/03 07:40:42;;;;;;;35.47;17.93;;;-0.80;99.90;;;;;;4919401;29;20048;-92
2022/03/03 07:43:09;;;;;;;31.90;17.27;;;-0.80;99.90;;;;;;4919169;29;20054;-91
2022/03/03 07:45:35;;;;;;;32.47;17.57;;;-0.70;99.90;;;;;;4918692;29;20071;-91
2022/03/03 07:48:00;;;;;;;34.77;18.03;;;-0.60;99.90;;;;;;4918558;29;20509;-90
2022/03/03 07:50:27;;;;;;;32.70;17.77;;;-0.60;99.90;;;;;;4918875;29;20059;-90
2022/03/03 07:52:54;;;;;;;35.97;19.03;;;0.50;99.90;;;;;;4919939;29;20559;-92
2022/03/03 07:55:20;;;;;;;33.37;17.80;;;-0.40;99.90;;;;;;4919719;29;20047;-90
2022/03/03 07:58:02;;;;;;;31.77;17.07;;;-0.30;99.90;;;;;;4929978;29;20064;-90
2022/03/03 08:00:31;;;;;;;30.17;17.17;;;-0.20;99.90;;;;;;4933287;29;20028;-88
2022/03/03 08:03:05;;;;;;;37.43;17.50;;;-0.10;99.90;;;;;;4929646;29;20506;-93
2022/03/03 08:05:31;;;;;;;34.08;17.60;;;-0.10;99.90;;;;;;4924768;29;20047;-94
2022/03/03 08:08:00;;;;;;;28.43;16.73;;;0.10;99.90;;;;;;4939725;29;20055;-93
2022/03/03 08:10:27;;;;;;;33.87;18.27;;;0.20;99.90;;;;;;4922053;29;20408;-93
2022/03/03 08:12:59;;;;;;;31.80;17.53;;;0.20;99.90;;;;;;4919234;29;20119;-95
2022/03/03 08:15:26;;;;;;;31.27;17.73;;;0.30;99.90;;;;;;4920051;29;20087;-90
2022/03/03 08:17:54;;;;;;;32.37;17.57;;;0.40;99.90;;;;;;4917817;29;20099;-91
2022/03/03 08:20:23;;;;;;;32.13;16.93;;;0.40;99.90;;;;;;4955506;23;20039;-90
2022/03/03 08:22:49;;;;;;;30.77;17.27;;;0.40;99.90;;;;;;4943185;28;20501;-90
2022/03/03 08:25:15;;;;;;;29.93;17.10;;;0.50;99.90;;;;;;4948067;28;20126;-90
2022/03/03 08:27:45;;;;;;;30.57;17.30;;;0.40;99.90;;;;;;4955540;28;20475;-90
2022/03/03 08:30:15;;;;;;;29.30;16.43;;;0.90;99.90;;;;;;4956190;28;20042;-90
2022/03/03 08:32:51;;;;;;;30.87;16.93;;;0.80;99.90;;;;;;4955390;28;20053;-91
2022/03/03 08:35:21;;;;;;;30.07;16.80;;;0.80;99.90;;;;;;4956009;28;20053;-91
2022/03/03 08:37:58;;;;;;;29.20;17.00;;;1.00;99.90;;;;;;4956173;28;20058;-90
2022/03/03 08:40:25;;;;;;;31.53;17.10;;;1.30;99.90;;;;;;4955254;28;20774;-90
2022/03/03 08:42:56;;;;;;;31.43;18.03;;;1.30;99.90;;;;;;4950689;28;20475;-92
2022/03/03 08:45:29;;;;;;;30.30;18.03;;;1.60;99.90;;;;;;4963160;28;20078;-91
2022/03/03 08:48:04;;;;;;;28.70;17.33;;;2.30;99.90;;;;;;4940975;29;20102;-93
2022/03/03 08:50:31;;;;;;;29.33;17.23;;;2.10;99.90;;;;;;4941058;29;20039;-91
2022/03/03 08:52:58;;;;;;;29.23;16.70;;;1.70;99.90;;;;;;4949738;28;20055;-88
2022/03/03 08:55:25;;;;;;;30.67;16.40;;;1.80;99.90;;;;;;4958707;28;20050;-90
2022/03/03 08:57:54;;;;;;;30.07;16.13;;;1.90;99.90;;;;;;4959841;28;20042;-90
2022/03/03 09:00:20;;;;;;;28.83;17.23;;;3.40;99.90;;;;;;4959506;28;20074;-91
2022/03/03 09:02:48;;;;;;;28.47;16.67;;;2.00;99.90;;;;;;4960590;28;20486;-95
2022/03/03 09:05:14;;;;;;;29.27;16.70;;;2.30;99.90;;;;;;4962271;28;20479;-96
2022/03/03 09:07:40;;;;;;;27.73;16.33;;;2.30;99.90;;;;;;4960873;28;20046;-93
2022/03/03 09:10:07;;;;;;;27.30;16.37;;;2.60;99.90;;;;;;4960380;28;20376;-95
2022/03/03 09:12:33;;;;;;;28.13;16.43;;;2.70;99.90;;;;;;4962501;28;20078;-94
2022/03/03 09:15:09;;;;;;;27.30;15.90;;;2.90;99.90;;;;;;4960585;28;20039;-94
2022/03/03 09:17:36;;;;;;;29.20;15.83;;;3.20;99.90;;;;;;4963768;28;20051;-95
2022/03/03 09:20:05;;;;;;;27.47;15.60;;;2.90;99.90;;;;;;4989985;28;20046;-95
2022/03/03 09:22:32;;;;;;;27.70;15.53;;;3.70;99.90;;;;;;4959745;28;20502;-89
2022/03/03 09:24:58;;;;;;;27.93;15.07;;;3.40;99.90;;;;;;4944907;29;20054;-92
2022/03/03 09:27:24;;;;;;;27.97;15.33;;;3.50;99.90;;;;;;4939709;29;20098;-92
2022/03/03 09:29:51;;;;;;;28.80;16.23;;;3.50;99.90;;;;;;4945750;29;20043;-91
2022/03/03 09:32:16;;;;;;;26.50;15.80;;;3.70;99.90;;;;;;4942283;29;20098;-91
2022/03/03 09:34:45;;;;;;;26.60;14.47;;;3.80;99.90;;;;;;4937528;29;20051;-90
2022/03/03 09:37:11;;;;;;;26.87;15.13;;;3.90;99.90;;;;;;4938669;29;20483;-89
2022/03/03 09:39:37;;;;;;;24.63;14.87;;;3.90;99.90;;;;;;4939364;29;20393;-90
2022/03/03 09:42:03;;;;;;;24.17;14.30;;;4.10;99.90;;;;;;4939696;29;20050;-90
2022/03/03 09:44:28;;;;;;;25.70;13.90;;;4.10;99.90;;;;;;4938606;29;20555;-90
2022/03/03 09:46:55;;;;;;;23.70;13.93;;;4.30;99.90;;;;;;4940644;29;20043;-89
2022/03/03 09:49:22;;;;;;;22.93;14.23;;;4.40;99.90;;;;;;4940037;29;20079;-90
2022/03/03 09:51:47;;;;;;;22.70;13.47;;;4.50;99.90;;;;;;4939526;29;20051;-90
2022/03/03 09:54:14;;;;;;;22.63;13.57;;;4.70;99.90;;;;;;4938323;29;20558;-90
2022/03/03 09:56:40;;;;;;;24.53;13.83;;;4.80;99.90;;;;;;4941465;29;20182;-89
2022/03/03 09:59:07;;;;;;;23.37;13.43;;;4.90;99.90;;;;;;4938595;29;20138;-90
2022/03/03 10:01:33;;;;;;;24.33;13.83;;;5.00;99.90;;;;;;4939059;29;20146;-90
2022/03/03 10:04:14;;;;;;;25.47;14.13;;;5.10;99.90;;;;;;4938399;29;20051;-90
2022/03/03 10:06:41;;;;;;;24.00;13.37;;;5.20;99.90;;;;;;4939755;29;20160;-90
2022/03/03 10:09:09;;;;;;;23.23;13.50;;;6.00;99.90;;;;;;4938784;29;20046;-90
2022/03/03 10:11:59;;;;;;;22.47;13.47;;;5.40;99.90;;;;;;4951424;28;20057;-90
2022/03/03 10:14:35;;;;;;;22.17;13.47;;;5.50;99.90;;;;;;4958032;28;20213;-90
2022/03/03 10:17:02;;;;;;;24.90;14.17;;;5.70;99.90;;;;;;4958677;28;20069;-90
2022/03/03 10:19:27;;;;;;;23.67;12.80;;;5.80;99.90;;;;;;4948287;29;20066;-90
2022/03/03 10:21:53;;;;;;;23.20;12.93;;;6.00;99.90;;;;;;4919663;29;20056;-89
2022/03/03 10:24:25;;;;;;;23.67;13.17;;;6.20;99.90;;;;;;4935249;29;20048;-90
2022/03/03 10:26:59;;;;;;;22.90;12.67;;;6.40;99.90;;;;;;4934844;29;20511;-90
2022/03/03 10:29:26;;;;;;;22.17;13.13;;;6.60;99.90;;;;;;4919851;29;20119;-90
2022/03/03 10:31:55;;;;;;;22.97;13.60;;;6.70;99.90;;;;;;4935203;29;20046;-90
2022/03/03 10:34:23;;;;;;;23.53;14.67;;;6.90;99.90;;;;;;4934456;29;20051;-91
2022/03/03 10:36:58;;;;;;;24.03;14.40;;;7.10;99.90;;;;;;4935648;29;20055;-90
2022/03/03 10:39:24;;;;;;;22.77;13.97;;;7.30;99.90;;;;;;4934596;29;20453;-91
2022/03/03 10:41:55;;;;;;;24.67;14.10;;;7.50;99.90;;;;;;4932426;29;20044;-89
2022/03/03 10:44:27;;;;;;;22.13;13.43;;;7.60;99.90;;;;;;4936450;29;20090;-90
2022/03/03 10:47:02;;;;;;;22.33;14.00;;;8.20;99.90;;;;;;4922720;29;20046;-91
2022/03/03 10:49:28;;;;;;;23.50;13.27;;;8.40;99.90;;;;;;4942907;29;20051;-91
2022/03/03 10:51:54;;;;;;;26.03;14.57;;;8.00;99.90;;;;;;4936645;29;20079;-90
2022/03/03 10:54:20;;;;;;;22.20;13.80;;;8.10;99.90;;;;;;4924476;29;20056;-92
2022/03/03 10:56:48;;;;;;;22.00;13.90;;;8.30;99.90;;;;;;4903723;29;20051;-92
2022/03/03 10:59:25;;;;;;;22.13;13.93;;;8.60;99.90;;;;;;4915786;29;20048;-92
2022/03/03 11:02:28;;;;;;;22.03;13.63;;;8.50;99.90;;;;;;4900073;29;20052;-92
2022/03/03 11:04:55;;;;;;;21.33;13.70;;;10.50;99.90;;;;;;4886756;29;20048;-91
2022/03/03 11:07:34;;;;;;;22.77;13.63;;;8.70;99.90;;;;;;4896948;29;20132;-91
2022/03/03 11:10:17;;;;;;;20.13;13.37;;;8.40;99.90;;;;;;4911237;29;20055;-92
2022/03/03 11:12:47;;;;;;;21.23;13.13;;;9.10;99.90;;;;;;4900426;29;20056;-91
2022/03/03 11:15:19;;;;;;;21.00;12.83;;;10.70;99.90;;;;;;4901050;29;20488;-91
2022/03/03 11:18:03;;;;;;;21.73;12.57;;;10.10;99.90;;;;;;4919159;29;20063;-92
2022/03/03 11:20:44;;;;;;;;;;;9.60;99.90;;;;;;4918430;29;20504;-87
2022/03/03 11:23:18;;;;;;;19.95;12.00;;;8.70;99.60;;;;;;4918120;29;19952;-90
2022/03/03 11:25:56;;;;;;;23.05;12.23;;;9.70;99.90;;;;;;4918990;29;20531;-90
2022/03/03 11:28:34;;;;;;;20.95;13.32;;;9.90;99.90;;;;;;4917892;29;20079;-89
2022/03/03 11:31:30;;;;;;;18.65;11.65;;;10.10;99.90;;;;;;4918542;29;20043;-89
2022/03/03 11:34:21;;;;;;;19.50;11.23;;;9.70;99.90;;;;;;4923128;29;20126;-90
2022/03/03 11:36:48;;;;;;;19.20;11.63;;;10.30;99.90;;;;;;4921845;29;20098;-89
2022/03/03 11:39:36;;;;;;;19.58;11.73;;;10.30;99.90;;;;;;4923765;29;20099;-90
2022/03/03 11:42:41;;;;;;;19.02;11.48;;;10.50;99.90;;;;;;4924835;29;20055;-91
2022/03/03 11:45:12;;;;;;;17.27;11.00;;;10.70;99.90;;;;;;4935365;23;20378;-91
2022/03/03 11:47:42;;;;;;;18.38;11.95;;;10.50;99.90;;;;;;4925465;29;20050;-90
2022/03/03 11:50:22;;;;;;;19.52;11.82;;;10.60;99.90;;;;;;4924172;29;20058;-91
2022/03/03 11:53:09;;;;;;;18.45;12.23;;;10.90;99.90;;;;;;4922957;29;20101;-90
2022/03/03 11:56:26;;;;;;;19.48;12.88;;;11.00;99.50;;;;;;4935985;23;20791;-92
2022/03/03 11:59:11;;;;;;;19.90;12.50;;;11.10;99.40;;;;;;4944972;28;20058;-91
2022/03/03 12:01:56;;;;;;;17.40;11.85;;;11.20;99.90;;;;;;4947321;28;20043;-93
2022/03/03 12:04:25;;;;;;;19.63;12.57;;;11.20;99.90;;;;;;4947497;28;20030;-91
2022/03/03 12:07:00;;;;;;;18.90;13.00;;;11.20;99.90;;;;;;4955521;28;20047;-93
2022/03/03 12:09:41;;;;;;;19.13;12.50;;;11.20;99.90;;;;;;4956950;28;20051;-92
2022/03/03 12:12:12;;;;;;;19.80;13.00;;;11.10;98.80;;;;;;4955349;28;20054;-87
2022/03/03 12:14:54;;;;;;;19.77;12.63;;;11.20;99.90;;;;;;4956099;28;20126;-86
2022/03/03 12:17:40;;;;;;;19.83;12.17;;;11.40;99.80;;;;;;4956596;28;20065;-87
2022/03/03 12:20:37;;;;;;;18.23;12.53;;;11.40;98.60;;;;;;4959838;28;20053;-86
2022/03/03 12:23:03;;;;;;;19.33;13.10;;;11.50;97.40;;;;;;4944603;28;20142;-86
2022/03/03 12:25:51;;;;;;;20.48;13.93;;;11.60;99.90;;;;;;4958896;28;20085;-86
2022/03/03 12:28:24;;;;;;;19.97;13.63;;;11.60;97.70;;;;;;4963991;28;20082;-89
2022/03/03 12:31:02;;;;;;;19.85;13.63;;;11.60;99.90;;;;;;4959741;28;20042;-85
2022/03/03 12:33:30;;;;;;;18.30;12.27;;;11.50;97.80;;;;;;4952537;28;20049;-87
2022/03/03 12:36:00;;;;;;;18.98;12.05;;;11.40;99.70;;;;;;4953722;28;20046;-88
2022/03/03 12:38:27;;;;;;;20.45;12.63;;;11.40;99.30;;;;;;4961478;28;20054;-91